AZU2340 SBSJ-SBTC
Flight info
| Callsign | AZU2340 |
|---|---|
| Flight time | 1h 33m |
| Altitude | 39000 |
| Route | UBNOV UZ14 ENVOG |
| Aircraft | E195/M-SDE3GILORVW/S |
Departure
| Time | 2026-04-15 23:31 |
|---|---|
| Airport | Professor Urbano Ernesto Stumpf Airport (SBSJ) |
Arrival
| Time | 2026-04-16 01:05 |
|---|---|
| Airport | Una-Comandatuba Airport (SBTC) |
| Time | Latitude | Longitude | Altitude | Speed | Heading |
|---|---|---|---|---|---|
| 2026-04-15 23:12 | -23.22647 | -45.86111 | 2134 ft | 0 kts | 45° |
| 2026-04-15 23:22 | -23.22652 | -45.86116 | 2134 ft | 2 kts | 37° |
| 2026-04-15 23:22 | -23.22663 | -45.86126 | 2134 ft | 2 kts | 47° |
| 2026-04-15 23:22 | -23.22673 | -45.86138 | 2134 ft | 2 kts | 44° |
| 2026-04-15 23:23 | -23.22680 | -45.86146 | 2134 ft | 2 kts | 41° |
| 2026-04-15 23:23 | -23.22694 | -45.86150 | 2134 ft | 2 kts | 353° |
| 2026-04-15 23:23 | -23.22706 | -45.86146 | 2134 ft | 0 kts | 320° |
| 2026-04-15 23:23 | -23.22710 | -45.86140 | 2134 ft | 1 kts | 314° |
| 2026-04-15 23:24 | -23.22712 | -45.86139 | 2134 ft | 0 kts | 315° |
| 2026-04-15 23:25 | -23.22711 | -45.86140 | 2134 ft | 0 kts | 315° |
| 2026-04-15 23:25 | -23.22700 | -45.86151 | 2134 ft | 3 kts | 316° |
| 2026-04-15 23:26 | -23.22673 | -45.86179 | 2134 ft | 6 kts | 316° |
| 2026-04-15 23:26 | -23.22630 | -45.86223 | 2134 ft | 10 kts | 316° |
| 2026-04-15 23:26 | -23.22574 | -45.86284 | 2134 ft | 13 kts | 314° |
| 2026-04-15 23:26 | -23.22502 | -45.86363 | 2134 ft | 16 kts | 315° |
| 2026-04-15 23:27 | -23.22416 | -45.86456 | 2134 ft | 18 kts | 315° |
| 2026-04-15 23:27 | -23.22323 | -45.86557 | 2134 ft | 19 kts | 315° |
| 2026-04-15 23:27 | -23.22228 | -45.86657 | 2134 ft | 16 kts | 315° |
| 2026-04-15 23:27 | -23.22146 | -45.86750 | 2134 ft | 17 kts | 311° |
| 2026-04-15 23:28 | -23.22075 | -45.86853 | 2134 ft | 16 kts | 305° |
| 2026-04-15 23:28 | -23.22008 | -45.86957 | 2134 ft | 17 kts | 305° |
| 2026-04-15 23:28 | -23.21947 | -45.87051 | 2134 ft | 9 kts | 306° |
| 2026-04-15 23:28 | -23.21920 | -45.87092 | 2134 ft | 3 kts | 295° |
| 2026-04-15 23:29 | -23.21918 | -45.87107 | 2134 ft | 0 kts | 264° |
| 2026-04-15 23:29 | -23.21919 | -45.87111 | 2134 ft | 1 kts | 264° |
| 2026-04-15 23:29 | -23.21923 | -45.87131 | 2134 ft | 3 kts | 245° |
| 2026-04-15 23:30 | -23.21944 | -45.87159 | 2134 ft | 5 kts | 226° |
| 2026-04-15 23:30 | -23.21981 | -45.87179 | 2134 ft | 4 kts | 166° |
| 2026-04-15 23:30 | -23.21989 | -45.87173 | 2134 ft | 0 kts | 137° |
| 2026-04-15 23:30 | -23.22008 | -45.87153 | 2134 ft | 23 kts | 136° |
| 2026-04-15 23:31 | -23.22284 | -45.86855 | 2134 ft | 86 kts | 135° |
| 2026-04-15 23:31 | -23.22840 | -45.86248 | 2134 ft | 138 kts | 135° |
| 2026-04-15 23:31 | -23.23591 | -45.85419 | 2389 ft | 155 kts | 133° |
| 2026-04-15 23:31 | -23.24295 | -45.84625 | 2952 ft | 147 kts | 132° |
| 2026-04-15 23:32 | -23.25045 | -45.83780 | 3238 ft | 162 kts | 135° |
| 2026-04-15 23:32 | -23.25860 | -45.82917 | 3649 ft | 167 kts | 134° |
| 2026-04-15 23:32 | -23.26496 | -45.81875 | 4078 ft | 170 kts | 99° |
| 2026-04-15 23:32 | -23.26270 | -45.80586 | 4309 ft | 186 kts | 56° |
| 2026-04-15 23:33 | -23.25169 | -45.79762 | 4570 ft | 202 kts | 22° |
| 2026-04-15 23:33 | -23.23794 | -45.79243 | 4786 ft | 216 kts | 21° |
| 2026-04-15 23:33 | -23.22347 | -45.78699 | 4992 ft | 228 kts | 21° |
| 2026-04-15 23:33 | -23.20791 | -45.78112 | 5164 ft | 242 kts | 21° |
| 2026-04-15 23:34 | -23.19152 | -45.77493 | 5268 ft | 257 kts | 21° |
| 2026-04-15 23:34 | -23.17417 | -45.76838 | 5442 ft | 267 kts | 21° |
| 2026-04-15 23:34 | -23.15638 | -45.76166 | 5685 ft | 274 kts | 20° |
| 2026-04-15 23:36 | -23.04480 | -45.71952 | 9702 ft | 288 kts | 21° |
| 2026-04-15 23:36 | -23.02566 | -45.71230 | 10452 ft | 292 kts | 21° |
| 2026-04-15 23:36 | -23.00624 | -45.70497 | 11089 ft | 299 kts | 21° |
| 2026-04-15 23:36 | -22.98624 | -45.69743 | 11630 ft | 309 kts | 21° |
| 2026-04-15 23:37 | -22.96544 | -45.68959 | 12135 ft | 321 kts | 21° |
| 2026-04-15 23:37 | -22.94397 | -45.68150 | 12695 ft | 329 kts | 21° |
| 2026-04-15 23:37 | -22.92178 | -45.67314 | 13328 ft | 335 kts | 21° |
| 2026-04-15 23:37 | -22.89987 | -45.66489 | 14013 ft | 337 kts | 21° |
| 2026-04-15 23:38 | -22.87748 | -45.65646 | 14676 ft | 341 kts | 20° |
| 2026-04-15 23:38 | -22.85473 | -45.64790 | 15298 ft | 345 kts | 20° |
| 2026-04-15 23:38 | -22.83180 | -45.63927 | 15858 ft | 351 kts | 20° |
| 2026-04-15 23:38 | -22.80836 | -45.63046 | 16401 ft | 356 kts | 19° |
| 2026-04-15 23:39 | -22.78465 | -45.62155 | 16969 ft | 361 kts | 19° |
| 2026-04-15 23:39 | -22.76084 | -45.61261 | 17543 ft | 364 kts | 19° |
| 2026-04-15 23:39 | -22.73685 | -45.60359 | 18100 ft | 368 kts | 18° |
| 2026-04-15 23:39 | -22.71240 | -45.59441 | 18631 ft | 372 kts | 18° |
| 2026-04-15 23:40 | -22.68761 | -45.58511 | 19177 ft | 376 kts | 18° |
| 2026-04-15 23:40 | -22.66273 | -45.57578 | 19724 ft | 379 kts | 18° |
| 2026-04-15 23:40 | -22.63756 | -45.56634 | 20223 ft | 383 kts | 18° |
| 2026-04-15 23:40 | -22.61200 | -45.55676 | 20732 ft | 386 kts | 19° |
| 2026-04-15 23:41 | -22.58648 | -45.54719 | 21212 ft | 390 kts | 19° |
| 2026-04-15 23:41 | -22.56065 | -45.53751 | 21693 ft | 393 kts | 18° |
| 2026-04-15 23:41 | -22.53454 | -45.52774 | 22155 ft | 397 kts | 19° |
| 2026-04-15 23:41 | -22.50822 | -45.51788 | 22580 ft | 401 kts | 19° |
| 2026-04-15 23:42 | -22.48131 | -45.50782 | 23017 ft | 406 kts | 18° |
| 2026-04-15 23:42 | -22.45467 | -45.49786 | 23504 ft | 408 kts | 18° |
| 2026-04-15 23:42 | -22.42769 | -45.48776 | 24008 ft | 410 kts | 18° |
| 2026-04-15 23:42 | -22.40077 | -45.47771 | 24448 ft | 414 kts | 18° |
| 2026-04-15 23:43 | -22.37321 | -45.46741 | 24903 ft | 417 kts | 18° |
| 2026-04-15 23:43 | -22.34557 | -45.45709 | 25368 ft | 420 kts | 18° |
| 2026-04-15 23:43 | -22.31762 | -45.44665 | 25816 ft | 423 kts | 18° |
| 2026-04-15 23:43 | -22.28969 | -45.43624 | 26227 ft | 426 kts | 18° |
| 2026-04-15 23:44 | -22.26126 | -45.42564 | 26633 ft | 430 kts | 17° |
| 2026-04-15 23:44 | -22.23290 | -45.41507 | 27084 ft | 432 kts | 18° |
| 2026-04-15 23:44 | -22.20456 | -45.40451 | 27491 ft | 435 kts | 17° |
| 2026-04-15 23:44 | -22.17546 | -45.39367 | 27922 ft | 438 kts | 17° |
| 2026-04-15 23:45 | -22.14666 | -45.38295 | 28321 ft | 440 kts | 17° |
| 2026-04-15 23:45 | -22.11730 | -45.37203 | 28662 ft | 445 kts | 17° |
| 2026-04-15 23:45 | -22.08791 | -45.36110 | 29035 ft | 448 kts | 17° |
| 2026-04-15 23:45 | -22.05812 | -45.34960 | 29443 ft | 451 kts | 21° |
| 2026-04-15 23:46 | -22.03037 | -45.33408 | 29944 ft | 452 kts | 31° |
| 2026-04-15 23:46 | -22.00484 | -45.31390 | 30432 ft | 452 kts | 37° |
| 2026-04-15 23:46 | -21.98002 | -45.29264 | 30873 ft | 452 kts | 37° |
| 2026-04-15 23:46 | -21.95509 | -45.27151 | 31247 ft | 454 kts | 37° |
| 2026-04-15 23:47 | -21.93039 | -45.25065 | 31606 ft | 455 kts | 37° |
| 2026-04-15 23:47 | -21.90542 | -45.22958 | 32072 ft | 454 kts | 37° |
| 2026-04-15 23:47 | -21.88152 | -45.20943 | 32587 ft | 450 kts | 37° |
| 2026-04-15 23:47 | -21.85701 | -45.18877 | 33146 ft | 447 kts | 37° |
| 2026-04-15 23:48 | -21.83224 | -45.16792 | 33665 ft | 445 kts | 38° |
| 2026-04-15 23:48 | -21.80795 | -45.14748 | 34004 ft | 447 kts | 38° |
| 2026-04-15 23:48 | -21.78311 | -45.12657 | 34341 ft | 449 kts | 38° |
| 2026-04-15 23:48 | -21.75835 | -45.10574 | 34701 ft | 450 kts | 39° |
| 2026-04-15 23:49 | -21.73361 | -45.08494 | 35086 ft | 450 kts | 39° |
| 2026-04-15 23:49 | -21.70842 | -45.06377 | 35493 ft | 451 kts | 39° |
| 2026-04-15 23:49 | -21.68389 | -45.04317 | 35910 ft | 450 kts | 39° |
| 2026-04-15 23:49 | -21.65871 | -45.02202 | 36260 ft | 451 kts | 40° |
| 2026-04-15 23:50 | -21.63384 | -45.00114 | 36600 ft | 452 kts | 40° |
| 2026-04-15 23:50 | -21.60907 | -44.98037 | 36966 ft | 452 kts | 40° |
| 2026-04-15 23:50 | -21.58434 | -44.95963 | 37271 ft | 453 kts | 40° |
| 2026-04-15 23:51 | -21.53465 | -44.91799 | 37853 ft | 455 kts | 41° |
| 2026-04-15 23:51 | -21.50955 | -44.89697 | 38144 ft | 456 kts | 41° |
| 2026-04-15 23:51 | -21.48467 | -44.87615 | 38430 ft | 457 kts | 41° |
| 2026-04-15 23:51 | -21.45960 | -44.85518 | 38742 ft | 457 kts | 41° |
| 2026-04-15 23:52 | -21.43413 | -44.83388 | 39015 ft | 459 kts | 41° |
| 2026-04-15 23:52 | -21.40917 | -44.81301 | 39141 ft | 454 kts | 41° |
| 2026-04-15 23:52 | -21.35879 | -44.77092 | 39161 ft | 466 kts | 41° |
| 2026-04-15 23:53 | -21.30690 | -44.72758 | 39163 ft | 478 kts | 41° |
| 2026-04-15 23:53 | -21.25400 | -44.68345 | 39154 ft | 486 kts | 41° |
| 2026-04-15 23:54 | -21.20072 | -44.63904 | 39154 ft | 485 kts | 41° |
| 2026-04-15 23:54 | -21.14731 | -44.59455 | 39151 ft | 482 kts | 41° |
| 2026-04-15 23:55 | -21.09446 | -44.55057 | 39152 ft | 482 kts | 41° |
| 2026-04-15 23:55 | -21.04152 | -44.50656 | 39150 ft | 482 kts | 41° |
| 2026-04-15 23:56 | -20.98824 | -44.46231 | 39151 ft | 483 kts | 41° |
| 2026-04-15 23:56 | -20.93484 | -44.41801 | 39154 ft | 483 kts | 41° |
| 2026-04-15 23:57 | -20.88192 | -44.37419 | 39142 ft | 483 kts | 41° |
| 2026-04-15 23:57 | -20.82872 | -44.33015 | 39153 ft | 482 kts | 41° |
| 2026-04-15 23:58 | -20.77525 | -44.28595 | 39155 ft | 482 kts | 41° |
| 2026-04-15 23:58 | -20.72222 | -44.24214 | 39157 ft | 480 kts | 41° |
| 2026-04-15 23:59 | -20.66878 | -44.19803 | 39147 ft | 480 kts | 41° |
| 2026-04-15 23:59 | -20.61593 | -44.15405 | 39142 ft | 482 kts | 42° |
| 2026-04-16 00:00 | -20.56309 | -44.10950 | 39141 ft | 481 kts | 41° |
| 2026-04-16 00:00 | -20.51059 | -44.06530 | 39145 ft | 480 kts | 41° |
| 2026-04-16 00:01 | -20.45747 | -44.02175 | 39141 ft | 479 kts | 41° |
| 2026-04-16 00:01 | -20.40491 | -43.97874 | 39141 ft | 479 kts | 41° |
| 2026-04-16 00:02 | -20.35159 | -43.93513 | 39144 ft | 480 kts | 41° |
| 2026-04-16 00:02 | -20.29901 | -43.89218 | 39146 ft | 477 kts | 40° |
| 2026-04-16 00:03 | -20.24578 | -43.84872 | 39148 ft | 477 kts | 40° |
| 2026-04-16 00:03 | -20.19283 | -43.80555 | 39145 ft | 477 kts | 40° |
| 2026-04-16 00:04 | -20.14031 | -43.76275 | 39142 ft | 477 kts | 40° |
| 2026-04-16 00:04 | -20.08721 | -43.71951 | 39140 ft | 478 kts | 40° |
| 2026-04-16 00:05 | -20.03426 | -43.67645 | 39141 ft | 478 kts | 41° |
| 2026-04-16 00:05 | -19.98105 | -43.63320 | 39143 ft | 479 kts | 40° |
| 2026-04-16 00:06 | -19.92812 | -43.59022 | 39134 ft | 477 kts | 40° |
| 2026-04-16 00:06 | -19.87526 | -43.54729 | 39127 ft | 478 kts | 41° |
| 2026-04-16 00:07 | -19.82204 | -43.50400 | 39136 ft | 480 kts | 41° |
| 2026-04-16 00:07 | -19.76881 | -43.46074 | 39140 ft | 480 kts | 40° |
| 2026-04-16 00:08 | -19.71562 | -43.41756 | 39137 ft | 480 kts | 41° |
| 2026-04-16 00:08 | -19.66203 | -43.37409 | 39132 ft | 480 kts | 41° |
| 2026-04-16 00:09 | -19.60897 | -43.33107 | 39136 ft | 480 kts | 40° |
| 2026-04-16 00:09 | -19.55560 | -43.28784 | 39132 ft | 480 kts | 41° |
| 2026-04-16 00:10 | -19.50214 | -43.24456 | 39125 ft | 479 kts | 41° |
| 2026-04-16 00:10 | -19.44916 | -43.20172 | 39123 ft | 480 kts | 40° |
| 2026-04-16 00:11 | -19.39603 | -43.15879 | 39114 ft | 481 kts | 40° |
| 2026-04-16 00:11 | -19.34281 | -43.11582 | 39101 ft | 481 kts | 40° |
| 2026-04-16 00:12 | -19.28967 | -43.07296 | 39096 ft | 479 kts | 40° |
| 2026-04-16 00:12 | -19.23636 | -43.02998 | 39091 ft | 481 kts | 40° |
| 2026-04-16 00:13 | -19.18288 | -42.98692 | 39089 ft | 482 kts | 41° |
| 2026-04-16 00:13 | -19.12981 | -42.94422 | 39087 ft | 480 kts | 41° |
| 2026-04-16 00:14 | -19.07651 | -42.90136 | 39086 ft | 479 kts | 40° |
| 2026-04-16 00:14 | -19.02328 | -42.85860 | 39087 ft | 480 kts | 40° |
| 2026-04-16 00:15 | -18.97031 | -42.81609 | 39090 ft | 478 kts | 41° |
| 2026-04-16 00:15 | -18.91732 | -42.77359 | 39101 ft | 478 kts | 40° |
| 2026-04-16 00:16 | -18.86419 | -42.73104 | 39103 ft | 478 kts | 40° |
| 2026-04-16 00:16 | -18.81128 | -42.68869 | 39106 ft | 478 kts | 40° |
| 2026-04-16 00:17 | -18.75825 | -42.64628 | 39116 ft | 479 kts | 40° |
| 2026-04-16 00:17 | -18.70439 | -42.60325 | 39115 ft | 478 kts | 40° |
| 2026-04-16 00:18 | -18.65135 | -42.56090 | 39106 ft | 477 kts | 40° |
| 2026-04-16 00:18 | -18.59873 | -42.51890 | 39097 ft | 476 kts | 40° |
| 2026-04-16 00:19 | -18.54553 | -42.47649 | 39087 ft | 477 kts | 40° |
| 2026-04-16 00:19 | -18.49265 | -42.43435 | 39080 ft | 478 kts | 40° |
| 2026-04-16 00:20 | -18.43938 | -42.39194 | 39084 ft | 477 kts | 40° |
| 2026-04-16 00:20 | -18.38630 | -42.34971 | 39086 ft | 478 kts | 40° |
| 2026-04-16 00:21 | -18.33299 | -42.30734 | 39093 ft | 478 kts | 40° |
| 2026-04-16 00:21 | -18.27943 | -42.26481 | 39101 ft | 479 kts | 40° |
| 2026-04-16 00:22 | -18.22613 | -42.22252 | 39095 ft | 479 kts | 40° |
| 2026-04-16 00:22 | -18.17309 | -42.18048 | 39079 ft | 478 kts | 40° |
| 2026-04-16 00:23 | -18.11956 | -42.13808 | 39068 ft | 478 kts | 40° |
| 2026-04-16 00:23 | -18.06642 | -42.09602 | 39068 ft | 478 kts | 40° |
| 2026-04-16 00:24 | -18.01310 | -42.05386 | 39066 ft | 477 kts | 40° |
| 2026-04-16 00:24 | -17.95957 | -42.01154 | 39068 ft | 482 kts | 40° |
| 2026-04-16 00:25 | -17.90597 | -41.96923 | 39080 ft | 480 kts | 40° |
| 2026-04-16 00:25 | -17.85238 | -41.92694 | 39083 ft | 480 kts | 40° |
| 2026-04-16 00:26 | -17.79892 | -41.88479 | 39085 ft | 479 kts | 40° |
| 2026-04-16 00:26 | -17.74535 | -41.84258 | 39079 ft | 477 kts | 40° |
| 2026-04-16 00:27 | -17.69227 | -41.80081 | 39065 ft | 477 kts | 40° |
| 2026-04-16 00:27 | -17.63884 | -41.75877 | 39054 ft | 477 kts | 40° |
| 2026-04-16 00:28 | -17.58584 | -41.71711 | 39049 ft | 475 kts | 40° |
| 2026-04-16 00:28 | -17.53259 | -41.67529 | 39048 ft | 477 kts | 40° |
| 2026-04-16 00:29 | -17.47940 | -41.63354 | 39045 ft | 475 kts | 40° |
| 2026-04-16 00:29 | -17.42652 | -41.59207 | 39043 ft | 473 kts | 40° |
| 2026-04-16 00:30 | -17.37721 | -41.54652 | 39059 ft | 467 kts | 51° |
| 2026-04-16 00:30 | -17.33311 | -41.49657 | 39047 ft | 468 kts | 51° |
| 2026-04-16 00:31 | -17.28897 | -41.44679 | 39048 ft | 467 kts | 51° |
| 2026-04-16 00:31 | -17.24468 | -41.39689 | 39056 ft | 465 kts | 51° |
| 2026-04-16 00:32 | -17.20040 | -41.34702 | 39058 ft | 466 kts | 51° |
| 2026-04-16 00:32 | -17.15604 | -41.29711 | 39067 ft | 465 kts | 51° |
| 2026-04-16 00:33 | -17.11189 | -41.24746 | 39066 ft | 465 kts | 51° |
| 2026-04-16 00:33 | -17.06801 | -41.19817 | 39059 ft | 464 kts | 51° |
| 2026-04-16 00:34 | -17.02401 | -41.14878 | 39057 ft | 462 kts | 51° |
| 2026-04-16 00:34 | -16.98001 | -41.09942 | 39052 ft | 463 kts | 51° |
| 2026-04-16 00:35 | -16.93619 | -41.05029 | 39049 ft | 463 kts | 51° |
| 2026-04-16 00:35 | -16.89208 | -41.00088 | 39045 ft | 464 kts | 51° |
| 2026-04-16 00:36 | -16.84795 | -40.95149 | 39043 ft | 463 kts | 51° |
| 2026-04-16 00:36 | -16.80406 | -40.90239 | 39048 ft | 465 kts | 51° |
| 2026-04-16 00:37 | -16.75990 | -40.85303 | 39054 ft | 465 kts | 51° |
| 2026-04-16 00:37 | -16.71670 | -40.80479 | 39048 ft | 447 kts | 51° |
| 2026-04-16 00:38 | -16.67451 | -40.75769 | 39063 ft | 447 kts | 51° |
| 2026-04-16 00:38 | -16.65298 | -40.73367 | 38638 ft | 452 kts | 51° |
| 2026-04-16 00:38 | -16.63167 | -40.70992 | 38164 ft | 449 kts | 51° |
| 2026-04-16 00:39 | -16.61039 | -40.68618 | 37661 ft | 447 kts | 50° |
| 2026-04-16 00:39 | -16.58907 | -40.66242 | 37169 ft | 446 kts | 50° |
| 2026-04-16 00:39 | -16.56794 | -40.63888 | 36678 ft | 446 kts | 50° |
| 2026-04-16 00:39 | -16.54677 | -40.61530 | 36183 ft | 448 kts | 49° |
| 2026-04-16 00:40 | -16.52543 | -40.59156 | 35683 ft | 448 kts | 49° |
| 2026-04-16 00:40 | -16.50420 | -40.56793 | 35189 ft | 449 kts | 49° |
| 2026-04-16 00:40 | -16.48280 | -40.54412 | 34686 ft | 450 kts | 49° |
| 2026-04-16 00:40 | -16.46150 | -40.52043 | 34190 ft | 451 kts | 49° |
| 2026-04-16 00:41 | -16.43987 | -40.49638 | 33683 ft | 452 kts | 48° |
| 2026-04-16 00:41 | -16.41846 | -40.47259 | 33187 ft | 453 kts | 48° |
| 2026-04-16 00:41 | -16.39671 | -40.44843 | 32702 ft | 456 kts | 48° |
| 2026-04-16 00:41 | -16.37485 | -40.42416 | 32195 ft | 460 kts | 48° |
| 2026-04-16 00:42 | -16.35297 | -40.39987 | 31685 ft | 463 kts | 48° |
| 2026-04-16 00:42 | -16.33087 | -40.37535 | 31175 ft | 466 kts | 48° |
| 2026-04-16 00:42 | -16.30869 | -40.35074 | 30659 ft | 469 kts | 48° |
| 2026-04-16 00:42 | -16.28626 | -40.32587 | 30135 ft | 468 kts | 47° |
| 2026-04-16 00:43 | -16.26416 | -40.30137 | 29622 ft | 465 kts | 47° |
| 2026-04-16 00:43 | -16.24203 | -40.27685 | 29108 ft | 464 kts | 48° |
| 2026-04-16 00:43 | -16.22010 | -40.25255 | 28602 ft | 461 kts | 47° |
| 2026-04-16 00:43 | -16.19838 | -40.22851 | 28096 ft | 457 kts | 47° |
| 2026-04-16 00:44 | -16.17677 | -40.20459 | 27591 ft | 454 kts | 47° |
| 2026-04-16 00:44 | -16.15498 | -40.18047 | 27077 ft | 449 kts | 48° |
| 2026-04-16 00:44 | -16.13371 | -40.15694 | 26577 ft | 446 kts | 48° |
| 2026-04-16 00:44 | -16.11266 | -40.13366 | 26089 ft | 441 kts | 48° |
| 2026-04-16 00:45 | -16.09164 | -40.11042 | 25595 ft | 437 kts | 48° |
| 2026-04-16 00:45 | -16.07097 | -40.08757 | 25113 ft | 432 kts | 47° |
| 2026-04-16 00:45 | -16.05056 | -40.06503 | 24629 ft | 429 kts | 47° |
| 2026-04-16 00:45 | -16.02996 | -40.04228 | 24147 ft | 426 kts | 48° |
| 2026-04-16 00:46 | -16.00998 | -40.02021 | 23683 ft | 423 kts | 48° |
| 2026-04-16 00:46 | -15.98987 | -39.99802 | 23217 ft | 419 kts | 48° |
| 2026-04-16 00:46 | -15.96979 | -39.97587 | 22751 ft | 415 kts | 48° |
| 2026-04-16 00:46 | -15.95012 | -39.95417 | 22307 ft | 412 kts | 48° |
| 2026-04-16 00:47 | -15.93075 | -39.93281 | 21857 ft | 408 kts | 48° |
| 2026-04-16 00:47 | -15.91126 | -39.91132 | 21406 ft | 403 kts | 48° |
| 2026-04-16 00:47 | -15.89195 | -39.89005 | 20963 ft | 400 kts | 48° |
| 2026-04-16 00:47 | -15.87280 | -39.86894 | 20518 ft | 397 kts | 47° |
| 2026-04-16 00:48 | -15.85377 | -39.84798 | 20078 ft | 394 kts | 47° |
| 2026-04-16 00:48 | -15.83510 | -39.82743 | 19647 ft | 390 kts | 47° |
| 2026-04-16 00:48 | -15.81635 | -39.80678 | 19207 ft | 389 kts | 47° |
| 2026-04-16 00:48 | -15.79786 | -39.78644 | 18780 ft | 386 kts | 47° |
| 2026-04-16 00:49 | -15.77949 | -39.76622 | 18351 ft | 382 kts | 47° |
| 2026-04-16 00:50 | -15.65532 | -39.62978 | 15474 ft | 364 kts | 46° |
| 2026-04-16 00:51 | -15.63793 | -39.61068 | 15070 ft | 363 kts | 45° |
| 2026-04-16 00:51 | -15.62055 | -39.59162 | 14672 ft | 362 kts | 45° |
| 2026-04-16 00:51 | -15.60339 | -39.57279 | 14264 ft | 361 kts | 45° |
| 2026-04-16 00:51 | -15.58614 | -39.55386 | 13861 ft | 358 kts | 45° |
| 2026-04-16 00:52 | -15.56894 | -39.53500 | 13469 ft | 355 kts | 45° |
| 2026-04-16 00:52 | -15.55209 | -39.51653 | 13080 ft | 353 kts | 45° |
| 2026-04-16 00:52 | -15.53535 | -39.49820 | 12692 ft | 350 kts | 45° |
| 2026-04-16 00:52 | -15.51859 | -39.47982 | 12305 ft | 349 kts | 45° |
| 2026-04-16 00:53 | -15.50203 | -39.46169 | 11915 ft | 346 kts | 45° |
| 2026-04-16 00:53 | -15.48545 | -39.44353 | 11531 ft | 341 kts | 45° |
| 2026-04-16 00:53 | -15.46934 | -39.42588 | 11157 ft | 334 kts | 45° |
| 2026-04-16 00:53 | -15.45354 | -39.40858 | 10776 ft | 326 kts | 45° |
| 2026-04-16 00:54 | -15.43813 | -39.39173 | 10421 ft | 318 kts | 45° |
| 2026-04-16 00:54 | -15.42313 | -39.37531 | 10073 ft | 310 kts | 45° |
| 2026-04-16 00:54 | -15.40838 | -39.35917 | 9739 ft | 303 kts | 46° |
| 2026-04-16 00:54 | -15.39391 | -39.34335 | 9401 ft | 298 kts | 45° |
| 2026-04-16 00:55 | -15.37977 | -39.32789 | 9072 ft | 297 kts | 46° |
| 2026-04-16 00:55 | -15.36559 | -39.31239 | 8741 ft | 296 kts | 46° |
| 2026-04-16 00:55 | -15.35140 | -39.29688 | 8417 ft | 295 kts | 46° |
| 2026-04-16 00:55 | -15.33740 | -39.28158 | 8100 ft | 293 kts | 46° |
| 2026-04-16 00:56 | -15.32338 | -39.26627 | 7766 ft | 292 kts | 46° |
| 2026-04-16 00:56 | -15.30935 | -39.25094 | 7442 ft | 290 kts | 46° |
| 2026-04-16 00:56 | -15.29550 | -39.23582 | 7113 ft | 289 kts | 46° |
| 2026-04-16 00:56 | -15.28165 | -39.22069 | 6792 ft | 287 kts | 47° |
| 2026-04-16 00:57 | -15.25443 | -39.19098 | 6141 ft | 278 kts | 47° |
| 2026-04-16 00:57 | -15.24148 | -39.17686 | 5798 ft | 261 kts | 47° |
| 2026-04-16 00:57 | -15.22948 | -39.16377 | 5533 ft | 244 kts | 47° |
| 2026-04-16 00:58 | -15.21809 | -39.15135 | 5367 ft | 232 kts | 48° |
| 2026-04-16 00:58 | -15.20706 | -39.13932 | 5120 ft | 226 kts | 48° |
| 2026-04-16 00:58 | -15.19638 | -39.12766 | 4821 ft | 221 kts | 49° |
| 2026-04-16 00:58 | -15.18970 | -39.11406 | 4533 ft | 203 kts | 84° |
| 2026-04-16 00:59 | -15.18805 | -39.10025 | 4441 ft | 188 kts | 85° |
| 2026-04-16 00:59 | -15.18660 | -39.08698 | 4230 ft | 181 kts | 86° |
| 2026-04-16 00:59 | -15.18525 | -39.07424 | 4014 ft | 175 kts | 86° |
| 2026-04-16 00:59 | -15.18397 | -39.06205 | 3815 ft | 168 kts | 86° |
| 2026-04-16 01:00 | -15.18274 | -39.05006 | 3630 ft | 165 kts | 86° |
| 2026-04-16 01:00 | -15.18152 | -39.03819 | 3464 ft | 166 kts | 87° |
| 2026-04-16 01:00 | -15.18216 | -39.02662 | 3279 ft | 162 kts | 118° |
| 2026-04-16 01:00 | -15.19025 | -39.01898 | 3114 ft | 163 kts | 161° |
| 2026-04-16 01:01 | -15.20140 | -39.01667 | 2883 ft | 162 kts | 169° |
| 2026-04-16 01:01 | -15.21217 | -39.01501 | 2709 ft | 152 kts | 170° |
| 2026-04-16 01:01 | -15.22262 | -39.01357 | 2437 ft | 149 kts | 170° |
| 2026-04-16 01:01 | -15.23274 | -39.01228 | 2220 ft | 146 kts | 170° |
| 2026-04-16 01:02 | -15.24272 | -39.01106 | 2018 ft | 140 kts | 171° |
| 2026-04-16 01:02 | -15.25238 | -39.00993 | 1812 ft | 136 kts | 171° |
| 2026-04-16 01:02 | -15.26160 | -39.00887 | 1635 ft | 132 kts | 171° |
| 2026-04-16 01:02 | -15.27085 | -39.00783 | 1471 ft | 134 kts | 171° |
| 2026-04-16 01:03 | -15.28017 | -39.00679 | 1306 ft | 135 kts | 172° |
| 2026-04-16 01:03 | -15.28957 | -39.00575 | 1134 ft | 135 kts | 172° |
| 2026-04-16 01:03 | -15.29878 | -39.00474 | 945 ft | 132 kts | 172° |
| 2026-04-16 01:03 | -15.30796 | -39.00375 | 776 ft | 132 kts | 172° |
| 2026-04-16 01:04 | -15.31724 | -39.00274 | 609 ft | 133 kts | 172° |
| 2026-04-16 01:04 | -15.32650 | -39.00174 | 441 ft | 135 kts | 172° |
| 2026-04-16 01:04 | -15.33588 | -39.00073 | 285 ft | 135 kts | 172° |
| 2026-04-16 01:04 | -15.34539 | -38.99973 | 95 ft | 138 kts | 172° |
| 2026-04-16 01:05 | -15.35438 | -38.99874 | 21 ft | 108 kts | 173° |
| 2026-04-16 01:05 | -15.35972 | -38.99813 | 20 ft | 45 kts | 175° |
| 2026-04-16 01:05 | -15.36103 | -38.99801 | 20 ft | 15 kts | 174° |
| 2026-04-16 01:05 | -15.36215 | -38.99788 | 20 ft | 16 kts | 173° |
| 2026-04-16 01:06 | -15.36308 | -38.99780 | 20 ft | 5 kts | 171° |
| 2026-04-16 01:06 | -15.36344 | -38.99760 | 20 ft | 6 kts | 139° |
| 2026-04-16 01:06 | -15.36358 | -38.99763 | 19 ft | 2 kts | 306° |
| 2026-04-16 01:06 | -15.36333 | -38.99771 | 20 ft | 4 kts | 347° |
| 2026-04-16 01:07 | -15.36298 | -38.99780 | 19 ft | 5 kts | 348° |
| 2026-04-16 01:07 | -15.36252 | -38.99786 | 20 ft | 7 kts | 352° |
| 2026-04-16 01:07 | -15.36197 | -38.99793 | 20 ft | 8 kts | 355° |
| 2026-04-16 01:07 | -15.36134 | -38.99797 | 20 ft | 9 kts | 356° |
| 2026-04-16 01:08 | -15.36063 | -38.99804 | 20 ft | 10 kts | 354° |
| 2026-04-16 01:08 | -15.35983 | -38.99813 | 20 ft | 12 kts | 354° |
| 2026-04-16 01:08 | -15.35894 | -38.99822 | 20 ft | 13 kts | 354° |
| 2026-04-16 01:08 | -15.35803 | -38.99833 | 20 ft | 10 kts | 353° |
| 2026-04-16 01:09 | -15.35747 | -38.99831 | 20 ft | 7 kts | 33° |
| 2026-04-16 01:09 | -15.35728 | -38.99775 | 21 ft | 9 kts | 84° |
| 2026-04-16 01:09 | -15.35721 | -38.99710 | 20 ft | 9 kts | 84° |
| 2026-04-16 01:09 | -15.35712 | -38.99666 | 20 ft | 4 kts | 73° |
| 2026-04-16 01:10 | -15.35722 | -38.99630 | 21 ft | 5 kts | 125° |
| 2026-04-16 01:10 | -15.35726 | -38.99625 | 21 ft | 1 kts | 125° |
| 2026-04-16 01:10 | -15.35732 | -38.99616 | 21 ft | 0 kts | 127° |
| 2026-04-16 01:10 | -15.35733 | -38.99615 | 21 ft | 0 kts | 127° |